Surface observations / UK / EGBB

Quebec | Canada | USA | France | UK | Europe | Elsewhere

Display: Info & Location for EGBB | Help decoding METAR

EGBB BIRMINGHAM AIRPORT -- UK
Raw surface observations for station EGBB
EGBB 250620Z 18007KT 9999 FEW040 10/08 Q1003=
EGBB 250550Z 19006KT 9999 FEW037 09/08 Q1003=
EGBB 250520Z 18005KT 150V210 CAVOK 09/07 Q1003=
EGBB 250450Z VRB03KT CAVOK 09/08 Q1003=
EGBB 250420Z 19004KT 150V230 9999 FEW034 09/08 Q1003=
EGBB 250350Z 20005KT 160V230 9999 BKN031 10/08 Q1004=
EGBB 250320Z 21004KT 160V250 9999 BKN029 10/08 Q1004=
EGBB 250250Z VRB03KT 9999 SCT026 09/08 Q1004=
EGBB 250220Z 21005KT 160V250 CAVOK 10/08 Q1004=
EGBB 250150Z AUTO 21005KT 140V240 9999 NCD 10/09 Q1004=
EGBB 250120Z AUTO 21006KT 180V250 9999 FEW008/// 10/09 Q1004=
EGBB 250050Z AUTO 21007KT 170V240 9999 FEW008/// 11/09 Q1005=
EGBB 250020Z 19005KT 160V250 9999 FEW009 11/09 Q1005=
EGBB 242350Z 21006KT 150V230 9999 FEW011 11/09 Q1005=
EGBB 242320Z 21008KT 170V240 9999 FEW011 BKN035 12/09 Q1006=
EGBB 242250Z 21007KT 160V240 9999 FEW011 BKN016 BKN021 12/10 Q1006=
EGBB 242220Z 21007KT 170V240 9999 BKN012 BKN019 12/09 Q1006=
EGBB 242150Z 21007KT 160V250 9999 SCT014 BKN018 BKN037 12/09 Q1006=
EGBB 242120Z 21007KT 160V280 9999 FEW019 SCT025 BKN036 13/09 Q1006=
EGBB 242050Z 20009KT 170V230 9999 SCT019 BKN033 13/09 Q1006=
EGBB 242020Z 19007KT 170V240 9999 SCT022 BKN026 13/09 Q1006=
EGBB 241950Z 19005KT 160V220 9000 VCSH SCT018 BKN025 13/09 Q1006=
EGBB 241920Z 19006KT 150V230 9999 BKN029 13/08 Q1006=
EGBB 241850Z AUTO 21006KT 150V240 9999 BKN030/// BKN035/// OVC041/// 14/08 Q1006=
EGBB 241820Z 20008KT 170V250 9999 BKN028 14/08 Q1007=
EGBB 241750Z 20007KT 9999 BKN034 14/08 Q1007=
EGBB 241720Z 23008KT 200V270 9999 BKN039 15/06 Q1007=
EGBB 241650Z 23008KT 200V270 9999 FEW034 SCT041 15/06 Q1007=
EGBB 241620Z 22008KT 180V300 9999 FEW031 BKN036 15/07 Q1007=
EGBB 241550Z 22007KT 180V260 9999 SCT034 15/08 Q1008=
EGBB 241520Z 24009KT 180V280 9999 BKN033 15/07 Q1008=
EGBB 241450Z 24008KT 200V280 9999 BKN031 15/07 Q1008=
EGBB 241420Z 22009KT 180V260 9999 BKN029 15/07 Q1008=
EGBB 241350Z 25009KT 9999 BKN028 15/07 Q1009=
EGBB 241320Z 25008KT 210V290 9999 BKN028 15/07 Q1009=
EGBB 241250Z 25008KT 200V280 9999 BKN026 14/07 Q1009=
EGBB 241220Z 23009KT 200V260 9999 BKN026 14/07 Q1009=
EGBB 241150Z 22008KT 180V290 9000 SCT025 BKN032 14/07 Q1009=
EGBB 241120Z 24008KT 180V270 9000 SCT033 14/07 Q1010=
EGBB 241050Z 21008KT 9000 FEW037 15/07 Q1010=
EGBB 241020Z 22009KT CAVOK 14/06 Q1010=
EGBB 240950Z 21005KT 140V270 CAVOK 15/07 Q1010=
EGBB 240920Z 25005KT 160V280 CAVOK 14/06 Q1010=
EGBB 240850Z 22005KT 170V250 CAVOK 13/06 Q1011=
EGBB 240820Z 23006KT 200V270 CAVOK 13/06 Q1011=
EGBB 240750Z 23004KT 190V260 7000 NSC 12/06 Q1011=
EGBB 240720Z 21006KT 180V250 7000 NSC 11/06 Q1011=
EGBB 240650Z 21005KT 160V260 6000 NSC 09/06 Q1011=
EGBB 240620Z 21005KT 180V240 5000 HZ NSC 09/06 Q1011=